sensor_id;sensor_type;location;lat;lon;timestamp;temperature;humidity
23073;DHT22;67971;51.046;3.732;2023-05-01T00:00:04;18.20;99.50
23073;DHT22;67971;51.046;3.732;2023-05-01T00:02:30;18.20;99.80
23073;DHT22;67971;51.046;3.732;2023-05-01T00:04:56;18.10;99.70
23073;DHT22;67971;51.046;3.732;2023-05-01T00:07:22;18.00;99.90
23073;DHT22;67971;51.046;3.732;2023-05-01T00:09:50;18.00;99.90
23073;DHT22;67971;51.046;3.732;2023-05-01T00:12:16;17.80;99.90
23073;DHT22;67971;51.046;3.732;2023-05-01T00:14:42;17.80;99.90
23073;DHT22;67971;51.046;3.732;2023-05-01T00:17:08;17.60;99.90
23073;DHT22;67971;51.046;3.732;2023-05-01T00:19:33;17.50;99.90
23073;DHT22;67971;51.046;3.732;2023-05-01T00:21:59;17.40;99.90
23073;DHT22;67971;51.046;3.732;2023-05-01T00:24:25;17.40;99.90
23073;DHT22;67971;51.046;3.732;2023-05-01T00:26:50;17.50;99.90
23073;DHT22;67971;51.046;3.732;2023-05-01T00:29:16;17.50;99.90
23073;DHT22;67971;51.046;3.732;2023-05-01T00:31:42;17.50;99.90
23073;DHT22;67971;51.046;3.732;2023-05-01T00:34:08;17.70;99.90
23073;DHT22;67971;51.046;3.732;2023-05-01T00:36:34;17.70;99.90
23073;DHT22;67971;51.046;3.732;2023-05-01T00:39:00;17.70;99.90
23073;DHT22;67971;51.046;3.732;2023-05-01T00:41:26;17.60;99.90
23073;DHT22;67971;51.046;3.732;2023-05-01T00:43:51;17.60;99.90
23073;DHT22;67971;51.046;3.732;2023-05-01T00:46:18;17.70;99.90
23073;DHT22;67971;51.046;3.732;2023-05-01T00:48:43;17.70;99.90
23073;DHT22;67971;51.046;3.732;2023-05-01T00:51:09;17.80;99.90
23073;DHT22;67971;51.046;3.732;2023-05-01T00:53:40;17.80;99.90
23073;DHT22;67971;51.046;3.732;2023-05-01T00:56:07;17.80;99.90
23073;DHT22;67971;51.046;3.732;2023-05-01T00:58:34;17.80;99.90
23073;DHT22;67971;51.046;3.732;2023-05-01T01:00:59;17.90;99.90
23073;DHT22;67971;51.046;3.732;2023-05-01T01:03:26;17.80;99.90
23073;DHT22;67971;51.046;3.732;2023-05-01T01:06:14;17.80;99.90
23073;DHT22;67971;51.046;3.732;2023-05-01T01:12:02;17.80;99.90
23073;DHT22;67971;51.046;3.732;2023-05-01T01:14:39;17.70;99.90
23073;DHT22;67971;51.046;3.732;2023-05-01T01:17:10;17.70;99.90
23073;DHT22;67971;51.046;3.732;2023-05-01T01:22:31;17.60;99.90
23073;DHT22;67971;51.046;3.732;2023-05-01T01:35:50;17.60;99.90
23073;DHT22;67971;51.046;3.732;2023-05-01T01:38:53;17.50;99.90
23073;DHT22;67971;51.046;3.732;2023-05-01T01:41:19;17.50;99.90
23073;DHT22;67971;51.046;3.732;2023-05-01T01:43:57;17.40;99.90
23073;DHT22;67971;51.046;3.732;2023-05-01T01:46:25;17.40;99.90
23073;DHT22;67971;51.046;3.732;2023-05-01T01:48:51;17.50;99.90
23073;DHT22;67971;51.046;3.732;2023-05-01T01:51:20;17.50;99.90
23073;DHT22;67971;51.046;3.732;2023-05-01T01:53:51;17.40;99.90
23073;DHT22;67971;51.046;3.732;2023-05-01T01:56:20;17.40;99.90
23073;DHT22;67971;51.046;3.732;2023-05-01T01:58:47;17.40;99.90
23073;DHT22;67971;51.046;3.732;2023-05-01T02:01:16;17.40;99.90
23073;DHT22;67971;51.046;3.732;2023-05-01T02:03:44;17.40;99.90
23073;DHT22;67971;51.046;3.732;2023-05-01T02:06:12;17.30;99.90
23073;DHT22;67971;51.046;3.732;2023-05-01T02:08:39;17.40;99.90
23073;DHT22;67971;51.046;3.732;2023-05-01T02:11:07;17.30;99.90
23073;DHT22;67971;51.046;3.732;2023-05-01T02:13:34;17.30;99.90
23073;DHT22;67971;51.046;3.732;2023-05-01T02:16:02;17.30;99.90
23073;DHT22;67971;51.046;3.732;2023-05-01T02:18:29;17.20;99.90
23073;DHT22;67971;51.046;3.732;2023-05-01T02:20:59;17.20;99.90
23073;DHT22;67971;51.046;3.732;2023-05-01T02:23:26;17.20;99.90
23073;DHT22;67971;51.046;3.732;2023-05-01T02:25:53;17.30;99.90
23073;DHT22;67971;51.046;3.732;2023-05-01T02:28:22;17.20;99.90
23073;DHT22;67971;51.046;3.732;2023-05-01T02:30:49;17.20;99.90
23073;DHT22;67971;51.046;3.732;2023-05-01T02:33:14;17.20;99.90
23073;DHT22;67971;51.046;3.732;2023-05-01T02:35:41;17.10;99.90
23073;DHT22;67971;51.046;3.732;2023-05-01T02:38:15;17.10;99.90
23073;DHT22;67971;51.046;3.732;2023-05-01T02:40:46;17.10;99.90
23073;DHT22;67971;51.046;3.732;2023-05-01T02:43:16;17.10;99.90
23073;DHT22;67971;51.046;3.732;2023-05-01T02:45:43;17.10;99.90
23073;DHT22;67971;51.046;3.732;2023-05-01T02:48:13;17.10;99.90
23073;DHT22;67971;51.046;3.732;2023-05-01T02:50:43;17.00;99.90
23073;DHT22;67971;51.046;3.732;2023-05-01T02:53:10;16.90;99.90
23073;DHT22;67971;51.046;3.732;2023-05-01T02:55:37;16.90;99.90
23073;DHT22;67971;51.046;3.732;2023-05-01T02:58:03;16.80;99.90
23073;DHT22;67971;51.046;3.732;2023-05-01T03:00:29;16.80;99.90
23073;DHT22;67971;51.046;3.732;2023-05-01T03:02:55;16.80;99.90
23073;DHT22;67971;51.046;3.732;2023-05-01T03:05:21;16.80;99.90
23073;DHT22;67971;51.046;3.732;2023-05-01T03:07:47;16.80;99.90
23073;DHT22;67971;51.046;3.732;2023-05-01T03:10:13;16.80;99.90
23073;DHT22;67971;51.046;3.732;2023-05-01T03:12:39;16.80;99.90
23073;DHT22;67971;51.046;3.732;2023-05-01T03:15:05;16.70;99.90
23073;DHT22;67971;51.046;3.732;2023-05-01T03:17:31;16.60;99.90
23073;DHT22;67971;51.046;3.732;2023-05-01T03:19:56;16.70;99.90
23073;DHT22;67971;51.046;3.732;2023-05-01T03:22:22;16.70;99.90
23073;DHT22;67971;51.046;3.732;2023-05-01T03:24:48;16.70;99.90
23073;DHT22;67971;51.046;3.732;2023-05-01T03:27:15;16.70;99.90
23073;DHT22;67971;51.046;3.732;2023-05-01T03:29:40;16.70;99.90
23073;DHT22;67971;51.046;3.732;2023-05-01T03:32:06;16.70;99.90
23073;DHT22;67971;51.046;3.732;2023-05-01T03:34:32;16.70;99.90
23073;DHT22;67971;51.046;3.732;2023-05-01T03:36:58;16.70;99.90
23073;DHT22;67971;51.046;3.732;2023-05-01T03:39:24;16.60;99.90
23073;DHT22;67971;51.046;3.732;2023-05-01T03:41:49;16.50;99.90
23073;DHT22;67971;51.046;3.732;2023-05-01T03:44:15;16.50;99.90
23073;DHT22;67971;51.046;3.732;2023-05-01T03:46:41;16.50;99.90
23073;DHT22;67971;51.046;3.732;2023-05-01T03:49:06;16.50;99.90
23073;DHT22;67971;51.046;3.732;2023-05-01T03:51:32;16.50;99.90
23073;DHT22;67971;51.046;3.732;2023-05-01T03:53:58;16.50;99.90
23073;DHT22;67971;51.046;3.732;2023-05-01T03:56:25;16.60;99.90
23073;DHT22;67971;51.046;3.732;2023-05-01T03:58:51;16.60;99.90
23073;DHT22;67971;51.046;3.732;2023-05-01T04:01:17;16.60;99.90
23073;DHT22;67971;51.046;3.732;2023-05-01T04:03:43;16.60;99.90
23073;DHT22;67971;51.046;3.732;2023-05-01T04:06:09;16.60;99.90
23073;DHT22;67971;51.046;3.732;2023-05-01T04:08:35;16.60;99.90
23073;DHT22;67971;51.046;3.732;2023-05-01T04:11:00;16.50;99.90
23073;DHT22;67971;51.046;3.732;2023-05-01T04:13:26;16.50;99.90
23073;DHT22;67971;51.046;3.732;2023-05-01T04:15:52;16.40;99.90
23073;DHT22;67971;51.046;3.732;2023-05-01T04:18:19;16.40;99.90
23073;DHT22;67971;51.046;3.732;2023-05-01T04:20:45;16.40;99.90
23073;DHT22;67971;51.046;3.732;2023-05-01T04:23:11;16.40;99.90
23073;DHT22;67971;51.046;3.732;2023-05-01T04:25:37;16.40;99.90
23073;DHT22;67971;51.046;3.732;2023-05-01T04:28:03;16.40;99.90
23073;DHT22;67971;51.046;3.732;2023-05-01T04:30:29;16.40;99.90
23073;DHT22;67971;51.046;3.732;2023-05-01T04:32:55;16.50;99.90
23073;DHT22;67971;51.046;3.732;2023-05-01T04:35:23;16.50;99.90
23073;DHT22;67971;51.046;3.732;2023-05-01T04:37:50;16.50;99.90
23073;DHT22;67971;51.046;3.732;2023-05-01T04:40:15;16.50;99.90
23073;DHT22;67971;51.046;3.732;2023-05-01T04:42:41;16.60;99.90
23073;DHT22;67971;51.046;3.732;2023-05-01T04:45:08;16.50;99.90
23073;DHT22;67971;51.046;3.732;2023-05-01T04:47:33;16.60;99.90
23073;DHT22;67971;51.046;3.732;2023-05-01T04:49:59;16.60;99.90
23073;DHT22;67971;51.046;3.732;2023-05-01T04:52:25;16.60;99.90
23073;DHT22;67971;51.046;3.732;2023-05-01T04:54:51;16.60;99.90
23073;DHT22;67971;51.046;3.732;2023-05-01T04:57:17;16.60;99.90
23073;DHT22;67971;51.046;3.732;2023-05-01T04:59:42;16.50;99.90
23073;DHT22;67971;51.046;3.732;2023-05-01T05:02:08;16.40;99.90
23073;DHT22;67971;51.046;3.732;2023-05-01T05:04:34;16.40;99.90
23073;DHT22;67971;51.046;3.732;2023-05-01T05:07:00;16.40;99.90
23073;DHT22;67971;51.046;3.732;2023-05-01T05:09:25;16.30;99.90
23073;DHT22;67971;51.046;3.732;2023-05-01T05:11:51;16.30;99.90
23073;DHT22;67971;51.046;3.732;2023-05-01T05:14:16;16.30;99.90
23073;DHT22;67971;51.046;3.732;2023-05-01T05:16:42;16.30;99.90
23073;DHT22;67971;51.046;3.732;2023-05-01T05:19:08;16.30;99.90
23073;DHT22;67971;51.046;3.732;2023-05-01T05:21:34;16.30;99.90
23073;DHT22;67971;51.046;3.732;2023-05-01T05:24:00;16.30;99.90
23073;DHT22;67971;51.046;3.732;2023-05-01T05:26:25;16.30;99.90
23073;DHT22;67971;51.046;3.732;2023-05-01T05:28:51;16.40;99.90
23073;DHT22;67971;51.046;3.732;2023-05-01T05:31:17;16.50;99.90
23073;DHT22;67971;51.046;3.732;2023-05-01T05:33:43;16.40;99.90
23073;DHT22;67971;51.046;3.732;2023-05-01T05:36:09;16.40;99.90
23073;DHT22;67971;51.046;3.732;2023-05-01T05:38:35;16.40;99.90
23073;DHT22;67971;51.046;3.732;2023-05-01T05:41:01;16.40;99.90
23073;DHT22;67971;51.046;3.732;2023-05-01T05:43:27;16.40;99.90
23073;DHT22;67971;51.046;3.732;2023-05-01T05:45:59;16.50;99.90
23073;DHT22;67971;51.046;3.732;2023-05-01T05:48:25;16.50;99.90
23073;DHT22;67971;51.046;3.732;2023-05-01T05:50:51;16.70;99.90
23073;DHT22;67971;51.046;3.732;2023-05-01T05:53:18;16.70;99.90
23073;DHT22;67971;51.046;3.732;2023-05-01T05:55:46;16.70;99.90
23073;DHT22;67971;51.046;3.732;2023-05-01T05:58:11;16.60;99.90
23073;DHT22;67971;51.046;3.732;2023-05-01T06:00:38;16.70;99.90
23073;DHT22;67971;51.046;3.732;2023-05-01T06:03:04;16.60;99.90
23073;DHT22;67971;51.046;3.732;2023-05-01T06:05:31;16.50;99.90
23073;DHT22;67971;51.046;3.732;2023-05-01T06:07:57;16.50;99.90
23073;DHT22;67971;51.046;3.732;2023-05-01T06:10:22;16.60;99.90
23073;DHT22;67971;51.046;3.732;2023-05-01T06:12:48;16.70;99.90
23073;DHT22;67971;51.046;3.732;2023-05-01T06:15:15;16.50;99.90
23073;DHT22;67971;51.046;3.732;2023-05-01T06:17:41;16.50;99.90
23073;DHT22;67971;51.046;3.732;2023-05-01T06:20:08;16.60;99.90
23073;DHT22;67971;51.046;3.732;2023-05-01T06:22:34;16.60;99.90
23073;DHT22;67971;51.046;3.732;2023-05-01T06:25:00;16.60;99.90
23073;DHT22;67971;51.046;3.732;2023-05-01T06:27:26;16.70;99.90
23073;DHT22;67971;51.046;3.732;2023-05-01T06:29:52;16.60;99.90
23073;DHT22;67971;51.046;3.732;2023-05-01T06:32:17;16.60;99.90
23073;DHT22;67971;51.046;3.732;2023-05-01T06:34:43;16.40;99.90
23073;DHT22;67971;51.046;3.732;2023-05-01T06:37:09;16.30;99.90
23073;DHT22;67971;51.046;3.732;2023-05-01T06:39:34;16.20;99.90
23073;DHT22;67971;51.046;3.732;2023-05-01T06:42:00;16.30;99.90
23073;DHT22;67971;51.046;3.732;2023-05-01T06:44:27;16.40;99.90
23073;DHT22;67971;51.046;3.732;2023-05-01T06:46:52;16.50;99.90
23073;DHT22;67971;51.046;3.732;2023-05-01T06:49:18;16.40;99.90
23073;DHT22;67971;51.046;3.732;2023-05-01T06:51:44;16.40;99.90
23073;DHT22;67971;51.046;3.732;2023-05-01T06:54:09;16.40;99.90
23073;DHT22;67971;51.046;3.732;2023-05-01T06:56:35;16.50;99.90
23073;DHT22;67971;51.046;3.732;2023-05-01T06:59:01;16.60;99.90
23073;DHT22;67971;51.046;3.732;2023-05-01T07:01:27;16.70;99.90
23073;DHT22;67971;51.046;3.732;2023-05-01T07:03:53;16.80;99.90
23073;DHT22;67971;51.046;3.732;2023-05-01T07:06:19;16.80;99.90
23073;DHT22;67971;51.046;3.732;2023-05-01T07:08:44;16.90;99.90
23073;DHT22;67971;51.046;3.732;2023-05-01T07:11:10;17.10;99.90
23073;DHT22;67971;51.046;3.732;2023-05-01T07:13:36;17.20;99.90
23073;DHT22;67971;51.046;3.732;2023-05-01T07:16:02;17.10;99.90
23073;DHT22;67971;51.046;3.732;2023-05-01T07:18:28;17.30;99.90
23073;DHT22;67971;51.046;3.732;2023-05-01T07:20:54;17.40;99.90
23073;DHT22;67971;51.046;3.732;2023-05-01T07:23:20;17.50;99.90
23073;DHT22;67971;51.046;3.732;2023-05-01T07:25:48;17.70;99.90
23073;DHT22;67971;51.046;3.732;2023-05-01T07:28:13;17.80;99.90
23073;DHT22;67971;51.046;3.732;2023-05-01T07:30:39;18.10;99.90
23073;DHT22;67971;51.046;3.732;2023-05-01T07:33:05;18.10;99.90
23073;DHT22;67971;51.046;3.732;2023-05-01T07:35:31;18.20;99.90
23073;DHT22;67971;51.046;3.732;2023-05-01T07:37:57;18.00;99.90
23073;DHT22;67971;51.046;3.732;2023-05-01T07:40:23;17.90;99.90
23073;DHT22;67971;51.046;3.732;2023-05-01T07:42:48;17.90;99.90
23073;DHT22;67971;51.046;3.732;2023-05-01T07:45:14;18.20;99.90
23073;DHT22;67971;51.046;3.732;2023-05-01T07:47:40;18.30;99.90
23073;DHT22;67971;51.046;3.732;2023-05-01T07:50:10;18.30;99.90
23073;DHT22;67971;51.046;3.732;2023-05-01T07:52:36;18.40;99.90
23073;DHT22;67971;51.046;3.732;2023-05-01T07:55:02;18.60;99.90
23073;DHT22;67971;51.046;3.732;2023-05-01T07:57:29;18.70;99.90
23073;DHT22;67971;51.046;3.732;2023-05-01T07:59:55;18.60;99.90
23073;DHT22;67971;51.046;3.732;2023-05-01T08:02:21;18.30;99.90
23073;DHT22;67971;51.046;3.732;2023-05-01T08:04:47;18.50;99.90
23073;DHT22;67971;51.046;3.732;2023-05-01T08:07:16;18.60;99.90
23073;DHT22;67971;51.046;3.732;2023-05-01T08:09:42;18.70;99.90
23073;DHT22;67971;51.046;3.732;2023-05-01T08:12:07;18.70;99.90
23073;DHT22;67971;51.046;3.732;2023-05-01T08:14:33;18.50;99.90
23073;DHT22;67971;51.046;3.732;2023-05-01T08:16:59;18.70;99.90
23073;DHT22;67971;51.046;3.732;2023-05-01T08:19:25;19.00;99.90
23073;DHT22;67971;51.046;3.732;2023-05-01T08:21:52;19.30;99.90
23073;DHT22;67971;51.046;3.732;2023-05-01T08:24:18;19.60;99.90
23073;DHT22;67971;51.046;3.732;2023-05-01T08:26:44;19.70;99.90
23073;DHT22;67971;51.046;3.732;2023-05-01T08:29:10;19.60;99.90
23073;DHT22;67971;51.046;3.732;2023-05-01T08:31:35;19.90;99.90
23073;DHT22;67971;51.046;3.732;2023-05-01T08:34:02;20.00;99.90
23073;DHT22;67971;51.046;3.732;2023-05-01T08:36:28;20.00;99.90
23073;DHT22;67971;51.046;3.732;2023-05-01T08:38:56;19.90;99.90
23073;DHT22;67971;51.046;3.732;2023-05-01T08:41:22;19.80;99.90
23073;DHT22;67971;51.046;3.732;2023-05-01T08:43:48;19.70;99.90
23073;DHT22;67971;51.046;3.732;2023-05-01T08:48:57;20.00;99.90
23073;DHT22;67971;51.046;3.732;2023-05-01T08:51:25;20.30;99.90
23073;DHT22;67971;51.046;3.732;2023-05-01T08:53:51;20.80;99.90
23073;DHT22;67971;51.046;3.732;2023-05-01T08:56:20;21.20;99.90
23073;DHT22;67971;51.046;3.732;2023-05-01T08:58:48;21.40;99.90
23073;DHT22;67971;51.046;3.732;2023-05-01T09:01:15;21.10;99.90
23073;DHT22;67971;51.046;3.732;2023-05-01T09:03:43;21.10;99.90
23073;DHT22;67971;51.046;3.732;2023-05-01T09:06:10;21.30;99.90
23073;DHT22;67971;51.046;3.732;2023-05-01T09:08:36;21.40;99.90
23073;DHT22;67971;51.046;3.732;2023-05-01T09:11:02;21.40;99.90
23073;DHT22;67971;51.046;3.732;2023-05-01T09:13:29;21.60;99.90
23073;DHT22;67971;51.046;3.732;2023-05-01T09:15:55;21.40;99.90
23073;DHT22;67971;51.046;3.732;2023-05-01T09:18:20;21.40;99.90
23073;DHT22;67971;51.046;3.732;2023-05-01T09:20:46;21.10;99.90
23073;DHT22;67971;51.046;3.732;2023-05-01T09:23:12;21.10;99.90
23073;DHT22;67971;51.046;3.732;2023-05-01T09:25:38;20.90;99.90
23073;DHT22;67971;51.046;3.732;2023-05-01T09:28:04;21.10;99.90
23073;DHT22;67971;51.046;3.732;2023-05-01T09:30:36;21.70;99.90
23073;DHT22;67971;51.046;3.732;2023-05-01T09:33:12;22.90;99.90
23073;DHT22;67971;51.046;3.732;2023-05-01T09:36:08;24.40;99.90
23073;DHT22;67971;51.046;3.732;2023-05-01T09:38:42;25.80;99.90
23073;DHT22;67971;51.046;3.732;2023-05-01T09:41:08;26.50;99.60
23073;DHT22;67971;51.046;3.732;2023-05-01T09:43:33;26.30;99.90
23073;DHT22;67971;51.046;3.732;2023-05-01T09:46:09;26.70;99.70
23073;DHT22;67971;51.046;3.732;2023-05-01T09:48:36;27.30;99.20
23073;DHT22;67971;51.046;3.732;2023-05-01T09:51:27;27.70;97.00
23073;DHT22;67971;51.046;3.732;2023-05-01T09:53:58;27.60;96.50
23073;DHT22;67971;51.046;3.732;2023-05-01T09:56:28;28.00;97.40
23073;DHT22;67971;51.046;3.732;2023-05-01T09:58:56;28.00;96.20
23073;DHT22;67971;51.046;3.732;2023-05-01T10:01:42;28.60;95.40
23073;DHT22;67971;51.046;3.732;2023-05-01T10:04:08;29.80;95.10
23073;DHT22;67971;51.046;3.732;2023-05-01T10:06:38;30.70;93.40
23073;DHT22;67971;51.046;3.732;2023-05-01T10:09:05;30.20;93.00
23073;DHT22;67971;51.046;3.732;2023-05-01T10:11:51;30.00;92.60
23073;DHT22;67971;51.046;3.732;2023-05-01T10:14:18;30.20;92.50
23073;DHT22;67971;51.046;3.732;2023-05-01T10:16:44;30.50;91.90
23073;DHT22;67971;51.046;3.732;2023-05-01T10:19:11;31.00;91.50
23073;DHT22;67971;51.046;3.732;2023-05-01T10:21:37;31.20;90.70
23073;DHT22;67971;51.046;3.732;2023-05-01T10:24:03;31.10;90.70
23073;DHT22;67971;51.046;3.732;2023-05-01T10:26:32;30.60;89.50
23073;DHT22;67971;51.046;3.732;2023-05-01T10:28:59;29.80;91.30
23073;DHT22;67971;51.046;3.732;2023-05-01T10:31:26;29.00;91.00
23073;DHT22;67971;51.046;3.732;2023-05-01T10:33:53;28.50;91.80
23073;DHT22;67971;51.046;3.732;2023-05-01T10:36:24;27.70;91.70
23073;DHT22;67971;51.046;3.732;2023-05-01T10:38:50;27.40;92.80
23073;DHT22;67971;51.046;3.732;2023-05-01T10:41:17;27.70;92.70
23073;DHT22;67971;51.046;3.732;2023-05-01T10:44:41;27.60;91.80
23073;DHT22;67971;51.046;3.732;2023-05-01T10:50:07;26.10;92.40
23073;DHT22;67971;51.046;3.732;2023-05-01T10:55:41;27.10;92.90
23073;DHT22;67971;51.046;3.732;2023-05-01T10:58:08;28.10;91.10
23073;DHT22;67971;51.046;3.732;2023-05-01T11:00:34;28.10;91.00
23073;DHT22;67971;51.046;3.732;2023-05-01T11:08:32;26.10;91.60
23073;DHT22;67971;51.046;3.732;2023-05-01T11:14:04;26.00;92.60
23073;DHT22;67971;51.046;3.732;2023-05-01T11:21:48;28.50;92.00
23073;DHT22;67971;51.046;3.732;2023-05-01T11:24:14;27.50;91.60
23073;DHT22;67971;51.046;3.732;2023-05-01T11:26:41;26.60;93.10
23073;DHT22;67971;51.046;3.732;2023-05-01T11:29:08;25.60;93.50
23073;DHT22;67971;51.046;3.732;2023-05-01T11:31:35;24.50;94.50
23073;DHT22;67971;51.046;3.732;2023-05-01T11:34:01;23.70;95.70
23073;DHT22;67971;51.046;3.732;2023-05-01T11:36:28;22.90;96.90
23073;DHT22;67971;51.046;3.732;2023-05-01T11:38:57;22.30;97.50
23073;DHT22;67971;51.046;3.732;2023-05-01T11:41:26;23.30;97.60
23073;DHT22;67971;51.046;3.732;2023-05-01T11:43:57;26.20;95.80
23073;DHT22;67971;51.046;3.732;2023-05-01T11:46:31;29.00;93.90
23073;DHT22;67971;51.046;3.732;2023-05-01T11:48:59;29.30;92.30
23073;DHT22;67971;51.046;3.732;2023-05-01T11:51:26;28.30;92.30
23073;DHT22;67971;51.046;3.732;2023-05-01T11:56:31;27.60;92.80
23073;DHT22;67971;51.046;3.732;2023-05-01T11:58:59;26.80;92.90
23073;DHT22;67971;51.046;3.732;2023-05-01T12:04:01;26.20;94.00
23073;DHT22;67971;51.046;3.732;2023-05-01T12:06:41;27.00;93.60
23073;DHT22;67971;51.046;3.732;2023-05-01T12:09:23;27.20;93.50
23073;DHT22;67971;51.046;3.732;2023-05-01T12:11:53;28.10;91.70
23073;DHT22;67971;51.046;3.732;2023-05-01T12:14:20;28.00;92.30
23073;DHT22;67971;51.046;3.732;2023-05-01T12:16:49;30.10;91.70
23073;DHT22;67971;51.046;3.732;2023-05-01T12:19:15;31.20;90.60
23073;DHT22;67971;51.046;3.732;2023-05-01T12:21:42;31.70;87.60
23073;DHT22;67971;51.046;3.732;2023-05-01T12:24:15;30.70;87.60
23073;DHT22;67971;51.046;3.732;2023-05-01T12:26:45;30.60;89.40
23073;DHT22;67971;51.046;3.732;2023-05-01T12:29:11;31.60;87.90
23073;DHT22;67971;51.046;3.732;2023-05-01T12:31:45;32.50;85.90
23073;DHT22;67971;51.046;3.732;2023-05-01T12:34:11;34.10;82.60
23073;DHT22;67971;51.046;3.732;2023-05-01T12:36:37;34.70;79.40
23073;DHT22;67971;51.046;3.732;2023-05-01T12:39:07;33.60;79.00
23073;DHT22;67971;51.046;3.732;2023-05-01T12:41:44;31.40;81.50
23073;DHT22;67971;51.046;3.732;2023-05-01T12:44:23;29.30;84.40
23073;DHT22;67971;51.046;3.732;2023-05-01T12:47:01;29.30;86.00
23073;DHT22;67971;51.046;3.732;2023-05-01T12:49:27;31.10;83.60
23073;DHT22;67971;51.046;3.732;2023-05-01T12:51:55;30.60;81.90
23073;DHT22;67971;51.046;3.732;2023-05-01T12:54:27;29.20;83.90
23073;DHT22;67971;51.046;3.732;2023-05-01T12:56:55;28.40;85.90
23073;DHT22;67971;51.046;3.732;2023-05-01T12:59:29;28.20;87.10
23073;DHT22;67971;51.046;3.732;2023-05-01T13:01:56;29.90;85.80
23073;DHT22;67971;51.046;3.732;2023-05-01T13:04:23;29.40;84.00
23073;DHT22;67971;51.046;3.732;2023-05-01T13:06:51;29.50;85.60
23073;DHT22;67971;51.046;3.732;2023-05-01T13:09:17;30.10;85.50
23073;DHT22;67971;51.046;3.732;2023-05-01T13:12:02;29.70;85.40
23073;DHT22;67971;51.046;3.732;2023-05-01T13:14:38;28.70;88.20
23073;DHT22;67971;51.046;3.732;2023-05-01T13:17:07;29.30;86.90
23073;DHT22;67971;51.046;3.732;2023-05-01T13:19:33;29.60;85.10
23073;DHT22;67971;51.046;3.732;2023-05-01T13:21:59;31.20;84.10
23073;DHT22;67971;51.046;3.732;2023-05-01T13:24:39;32.40;83.00
23073;DHT22;67971;51.046;3.732;2023-05-01T13:27:07;33.00;80.90
23073;DHT22;67971;51.046;3.732;2023-05-01T13:29:33;32.80;79.60
23073;DHT22;67971;51.046;3.732;2023-05-01T13:32:00;32.40;78.50
23073;DHT22;67971;51.046;3.732;2023-05-01T13:34:32;30.40;81.50
23073;DHT22;67971;51.046;3.732;2023-05-01T13:37:00;30.60;82.20
23073;DHT22;67971;51.046;3.732;2023-05-01T13:39:26;29.80;86.00
23073;DHT22;67971;51.046;3.732;2023-05-01T13:41:52;28.60;88.10
23073;DHT22;67971;51.046;3.732;2023-05-01T13:44:19;28.10;90.70
23073;DHT22;67971;51.046;3.732;2023-05-01T13:46:46;29.90;89.60
23073;DHT22;67971;51.046;3.732;2023-05-01T13:49:13;31.00;86.50
23073;DHT22;67971;51.046;3.732;2023-05-01T13:51:40;32.30;84.20
23073;DHT22;67971;51.046;3.732;2023-05-01T13:54:11;33.30;81.60
23073;DHT22;67971;51.046;3.732;2023-05-01T13:56:38;33.20;79.70
23073;DHT22;67971;51.046;3.732;2023-05-01T13:59:05;33.60;78.80
23073;DHT22;67971;51.046;3.732;2023-05-01T14:01:38;34.50;79.30
23073;DHT22;67971;51.046;3.732;2023-05-01T14:04:08;34.80;76.50
23073;DHT22;67971;51.046;3.732;2023-05-01T14:06:40;34.90;76.00
23073;DHT22;67971;51.046;3.732;2023-05-01T14:09:07;34.50;74.70
23073;DHT22;67971;51.046;3.732;2023-05-01T14:11:33;33.50;74.40
23073;DHT22;67971;51.046;3.732;2023-05-01T14:13:58;33.50;75.90
23073;DHT22;67971;51.046;3.732;2023-05-01T14:16:28;33.00;75.60
23073;DHT22;67971;51.046;3.732;2023-05-01T14:18:56;32.80;75.80
23073;DHT22;67971;51.046;3.732;2023-05-01T14:21:25;32.30;79.30
23073;DHT22;67971;51.046;3.732;2023-05-01T14:23:55;32.20;77.60
23073;DHT22;67971;51.046;3.732;2023-05-01T14:26:24;33.20;77.60
23073;DHT22;67971;51.046;3.732;2023-05-01T14:28:50;33.80;76.90
23073;DHT22;67971;51.046;3.732;2023-05-01T14:31:25;33.70;76.70
23073;DHT22;67971;51.046;3.732;2023-05-01T14:34:02;33.90;77.10
23073;DHT22;67971;51.046;3.732;2023-05-01T14:36:28;34.80;75.30
23073;DHT22;67971;51.046;3.732;2023-05-01T14:38:58;34.10;75.50
23073;DHT22;67971;51.046;3.732;2023-05-01T14:41:24;33.50;77.00
23073;DHT22;67971;51.046;3.732;2023-05-01T14:43:50;32.10;78.30
23073;DHT22;67971;51.046;3.732;2023-05-01T14:46:29;31.20;79.30
23073;DHT22;67971;51.046;3.732;2023-05-01T14:48:56;30.20;82.70
23073;DHT22;67971;51.046;3.732;2023-05-01T14:51:22;29.30;84.90
23073;DHT22;67971;51.046;3.732;2023-05-01T14:53:47;27.70;87.50
23073;DHT22;67971;51.046;3.732;2023-05-01T14:56:13;27.40;90.00
23073;DHT22;67971;51.046;3.732;2023-05-01T14:58:39;28.00;88.60
23073;DHT22;67971;51.046;3.732;2023-05-01T15:01:05;27.80;89.30
23073;DHT22;67971;51.046;3.732;2023-05-01T15:03:32;28.50;89.50
23073;DHT22;67971;51.046;3.732;2023-05-01T15:06:00;28.80;87.70
23073;DHT22;67971;51.046;3.732;2023-05-01T15:08:26;29.90;84.90
23073;DHT22;67971;51.046;3.732;2023-05-01T15:10:52;29.90;85.10
23073;DHT22;67971;51.046;3.732;2023-05-01T15:13:17;27.80;88.00
23073;DHT22;67971;51.046;3.732;2023-05-01T15:15:44;26.60;90.10
23073;DHT22;67971;51.046;3.732;2023-05-01T15:18:10;26.00;90.60
23073;DHT22;67971;51.046;3.732;2023-05-01T15:20:35;27.00;90.40
23073;DHT22;67971;51.046;3.732;2023-05-01T15:23:02;26.70;90.60
23073;DHT22;67971;51.046;3.732;2023-05-01T15:25:27;26.60;91.10
23073;DHT22;67971;51.046;3.732;2023-05-01T15:27:53;25.50;91.90
23073;DHT22;67971;51.046;3.732;2023-05-01T15:30:19;24.90;92.60
23073;DHT22;67971;51.046;3.732;2023-05-01T15:32:45;24.70;93.20
23073;DHT22;67971;51.046;3.732;2023-05-01T15:35:11;26.00;92.20
23073;DHT22;67971;51.046;3.732;2023-05-01T15:37:37;27.30;90.50
23073;DHT22;67971;51.046;3.732;2023-05-01T15:40:03;27.70;90.10
23073;DHT22;67971;51.046;3.732;2023-05-01T15:42:29;27.30;90.10
23073;DHT22;67971;51.046;3.732;2023-05-01T15:44:55;27.70;90.00
23073;DHT22;67971;51.046;3.732;2023-05-01T15:47:21;27.90;90.10
23073;DHT22;67971;51.046;3.732;2023-05-01T15:49:46;27.10;90.70
23073;DHT22;67971;51.046;3.732;2023-05-01T15:52:13;26.10;91.10
23073;DHT22;67971;51.046;3.732;2023-05-01T15:54:38;25.50;92.20
23073;DHT22;67971;51.046;3.732;2023-05-01T15:57:04;25.00;92.40
23073;DHT22;67971;51.046;3.732;2023-05-01T15:59:32;24.50;93.00
23073;DHT22;67971;51.046;3.732;2023-05-01T16:01:57;24.20;93.20
23073;DHT22;67971;51.046;3.732;2023-05-01T16:04:23;23.70;93.90
23073;DHT22;67971;51.046;3.732;2023-05-01T16:06:49;23.60;94.50
23073;DHT22;67971;51.046;3.732;2023-05-01T16:09:14;23.50;94.70
23073;DHT22;67971;51.046;3.732;2023-05-01T16:11:40;23.30;94.80
23073;DHT22;67971;51.046;3.732;2023-05-01T16:14:09;23.20;95.30
23073;DHT22;67971;51.046;3.732;2023-05-01T16:16:40;23.00;95.10